Weather observations for the past three days for
Broomfield / Jeffco
| Date | Time (mdt) | Wind (kph) | Vis. (km) | Weather | Sky Cond. | Temperature (ºC) | Relative Humidity | Wind Chill (°C) | Heat Index (°C) | Pressure | Precipitation (cm) | ||||||
|---|---|---|---|---|---|---|---|---|---|---|---|---|---|---|---|---|---|
| Air | Dwpt | 6 hour | altimeter (cm) | sea level (mb) | 1 hr | 3 hr | 6 hr | ||||||||||
| Max. | Min. | ||||||||||||||||
| 08 | 09:54 | SE 15 | 16.09 | Partly Cloudy | SCT110 | 13 | 5 | 59% | 76.35 | 0.0 | |||||||
| 08 | 08:45 | S 15 | 16.09 | Fair | CLR | 13 | 6 | 63% | 76.35 | 0.0 | |||||||
| 08 | 07:50 | S 9 | 16.09 | Fair | CLR | 11 | 6 | 72% | 76.38 | 0.0 | |||||||
| 08 | 06:45 | NW 9 | 16.09 | Mostly Cloudy | BKN034 | 8 | 6 | 87% | 7 | 76.4 | 0.0 | ||||||
| 08 | 06:15 | N 13 | 16.09 | Mostly Cloudy | BKN030 BKN120 | 7 | 6 | 93% | 5 | 76.38 | 0.0 | ||||||
| 08 | 05:55 | NW 6 | 16.09 | Mostly Cloudy | BKN030 BKN120 | 7 | 5 | 87% | 76.3 | 0.0 | |||||||
| 08 | 05:35 | NW 9 | 16.09 | Mostly Cloudy | BKN030 BKN120 | 7 | 5 | 87% | 5 | 76.3 | 0.0 | ||||||
| 08 | 04:55 | N 13 | 16.09 | Fair | CLR | 7 | 5 | 87% | 5 | 76.28 | 0.0 | ||||||
| 08 | 04:35 | NE 11 | 16.09 | Fair | CLR | 7 | 5 | 87% | 5 | 76.25 | 0.0 | ||||||
| 08 | 04:15 | N 9 | 16.09 | Fair | CLR | 7 | 5 | 87% | 5 | 76.25 | 0.0 | ||||||
| 08 | 03:55 | W 7 | 16.09 | Partly Cloudy | SCT100 | 6 | 4 | 87% | 5 | 76.23 | 0.0 | ||||||
| 08 | 03:35 | W 6 | 16.09 | Partly Cloudy | SCT110 | 7 | 5 | 87% | 76.2 | 0.0 | |||||||
| 08 | 03:15 | Calm | 16.09 | Partly Cloudy | SCT110 | 8 | 6 | 87% | 76.23 | 0.0 | |||||||
| 08 | 02:55 | N 7 | 16.09 | Fair | CLR | 8 | 6 | 87% | 7 | 76.23 | 0.0 | ||||||
| 08 | 02:35 | N 11 | 16.09 | Fair | CLR | 8 | 6 | 87% | 6 | 76.25 | 0.0 | ||||||
| 08 | 02:15 | NE 15 | 16.09 | Mostly Cloudy | BKN095 | 8 | 6 | 87% | 6 | 76.25 | 0.0 | ||||||
| 08 | 01:55 | N 7 | 16.09 | Mostly Cloudy | BKN095 | 9 | 6 | 82% | 8 | 76.28 | 0.0 | ||||||
| 08 | 01:35 | N 11 | 16.09 | Fair | CLR | 9 | 6 | 82% | 8 | 76.3 | 0.0 | ||||||
| 08 | 01:15 | N 11 | 16.09 | Fair | CLR | 8 | 6 | 87% | 6 | 76.3 | 0.0 | ||||||
| 08 | 00:55 | Calm | 16.09 | Fair | CLR | 8 | 6 | 87% | 76.25 | 0.0 | |||||||
| 08 | 00:35 | SW 6 | 16.09 | Fair | CLR | 10 | 5 | 71% | 76.28 | 0.0 | |||||||
| 08 | 00:15 | Calm | 16.09 | Partly Cloudy | SCT060 SCT070 | 10 | 6 | 76% | 76.25 | 0.0 | |||||||
| 07 | 23:55 | NE 11 | 16.09 | Light Rain | SCT050 BKN060 OVC080 | 11 | 6 | 72% | 76.23 | 0.0 | |||||||
| 07 | 23:35 | NW 22 | 16.09 | Overcast | SCT055 BKN080 OVC110 | 12 | 4 | 58% | 76.33 | 0.0 | |||||||
| 07 | 23:15 | Calm | 16.09 | Mostly Cloudy | BKN110 | 12 | 3 | 54% | 76.23 | 0.0 | |||||||
| 07 | 22:55 | NE 9 | 16.09 | Partly Cloudy | SCT110 | 12 | 3 | 54% | 76.2 | 0.0 | |||||||
| 07 | 22:35 | NE 17 | 16.09 | Mostly Cloudy | SCT060 SCT070 BKN110 | 12 | 3 | 54% | 76.2 | 0.0 | |||||||
| 07 | 22:15 | N 17 | 16.09 | Light Rain | SCT060 BKN080 OVC110 | 13 | 3 | 51% | 76.25 | 0.0 | |||||||
| 07 | 21:55 | NE 19 | 16.09 | Mostly Cloudy | BKN110 | 13 | 2 | 47% | 76.2 | 0.0 | |||||||
| 07 | 21:35 | E 7 | 16.09 | Overcast | OVC110 | 14 | 1 | 41% | 76.17 | 0.0 | |||||||
| 07 | 21:15 | Calm | 16.09 | Overcast | OVC100 | 15 | 0 | 36% | 76.17 | 0.0 | |||||||
| 07 | 20:55 | Calm | 16.09 | Overcast | OVC110 | 14 | 1 | 41% | 76.15 | 0.0 | |||||||
| 07 | 20:35 | W 11 | 16.09 | Overcast | OVC110 | 13 | 2 | 47% | 76.12 | 0.0 | |||||||
| 07 | 20:15 | Calm | 16.09 | Mostly Cloudy | BKN100 | 16 | 0 | 34% | 76.12 | 0.0 | |||||||
| 07 | 19:45 | NE 17 | 16.09 | Mostly Cloudy | SCT050 BKN080 | 15 | 2 | 42% | 76.1 | 0.0 | |||||||
| 07 | 18:49 | S 9 | 16.09 | Mostly Cloudy | BKN110 | 18 | -3 | 24% | 76.02 | 0.0 | |||||||
| 07 | 17:49 | Calm | 16.09 | Mostly Cloudy | BKN110 | 20 | -5 | 18% | 76 | 0.0 | |||||||
| 07 | 16:45 | Calm | 16.09 | Partly Cloudy | SCT110 | 19 | -4 | 21% | 76.02 | 0.0 | |||||||
| 07 | 15:45 | W 13 | 16.09 | Partly Cloudy | SCT110 | 20 | -3 | 21% | 76.1 | 0.0 | |||||||
| 07 | 14:46 | W 13 | 16.09 | Fair | CLR | 19 | -3 | 22% | 76.17 | 0.0 | |||||||
| 07 | 13:50 | NW 11 G 31 | 16.09 | Fair | CLR | 18 | -2 | 26% | 76.2 | 0.0 | |||||||
| 07 | 12:50 | W 13 G 31 | 16.09 | Fair | CLR | 17 | -2 | 27% | 76.25 | 0.0 | |||||||
| 07 | 11:49 | W 28 | 16.09 | Fair | CLR | 14 | -1 | 36% | 76.23 | 0.0 | |||||||
| 07 | 10:49 | SE 11 | 16.09 | Fair | CLR | 14 | 1 | 41% | 76.28 | 0.0 | |||||||
| 07 | 09:49 | NW 24 | 16.09 | Fair | CLR | 14 | -1 | 36% | 76.3 | 0.0 | |||||||
| 07 | 08:45 | E 9 | 16.09 | Fair | CLR | 11 | -1 | 44% | 76.3 | 0.0 | |||||||
| 07 | 07:45 | Calm | 16.09 | Fair | CLR | 11 | -4 | 35% | 76.3 | 0.0 | |||||||
| 07 | 06:15 | W 17 | 16.09 | Fair | CLR | 7 | -4 | 46% | 4 | 76.23 | 0.0 | ||||||
| 07 | 05:55 | W 13 | 16.09 | Fair | CLR | 7 | -4 | 46% | 5 | 76.25 | 0.0 | ||||||
| 07 | 05:35 | SW 13 | 16.09 | Fair | CLR | 6 | -4 | 49% | 4 | 76.25 | 0.0 | ||||||
| 07 | 05:15 | W 11 | 16.09 | Fair | CLR | 7 | -5 | 43% | 5 | 76.23 | 0.0 | ||||||
| 07 | 04:55 | SW 7 | 16.09 | Fair | CLR | 6 | -5 | 46% | 5 | 76.25 | 0.0 | ||||||
| 07 | 04:35 | SW 13 | 16.09 | Fair | CLR | 7 | -6 | 39% | 5 | 76.23 | 0.0 | ||||||
| 07 | 04:15 | S 11 | 16.09 | Fair | CLR | 6 | -5 | 46% | 4 | 76.25 | 0.0 | ||||||
| 07 | 03:55 | Calm | 16.09 | Fair | CLR | 7 | -6 | 39% | 76.25 | 0.0 | |||||||
| 07 | 03:35 | SW 6 | 16.09 | Fair | CLR | 6 | -6 | 42% | 76.28 | 0.0 | |||||||
| 07 | 03:15 | W 9 | 16.09 | Fair | CLR | 6 | -6 | 42% | 4 | 76.25 | 0.0 | ||||||
| 07 | 02:55 | W 9 | 16.09 | Fair | CLR | 6 | -6 | 42% | 4 | 76.28 | 0.0 | ||||||
| 07 | 02:35 | Calm | 16.09 | Fair | CLR | 6 | -7 | 39% | 76.28 | 0.0 | |||||||
| 07 | 02:15 | SW 9 | 16.09 | Fair | CLR | 6 | -6 | 42% | 4 | 76.28 | 0.0 | ||||||
| 07 | 01:55 | W 15 | 16.09 | Fair | CLR | 6 | -7 | 39% | 3 | 76.3 | 0.0 | ||||||
| 07 | 01:35 | W 9 | 16.09 | Fair | CLR | 3 | -5 | 56% | 1 | 76.33 | 0.0 | ||||||
| 07 | 01:15 | SW 9 | 16.09 | Fair | CLR | 3 | -3 | 65% | 1 | 76.33 | 0.0 | ||||||
| 07 | 00:55 | SW 7 | 16.09 | Fair | CLR | 3 | -4 | 60% | 1 | 76.35 | 0.0 | ||||||
| 07 | 00:35 | SW 13 | 16.09 | Fair | CLR | 3 | -2 | 70% | 0 | 76.35 | 0.0 | ||||||
| 07 | 00:15 | S 13 | 16.09 | Fair | CLR | 4 | -2 | 65% | 1 | 76.35 | 0.0 | ||||||
| 06 | 23:55 | SW 13 | 16.09 | Fair | CLR | 2 | -1 | 81% | -1 | 76.35 | 0.0 | ||||||
| 06 | 23:35 | W 22 G 28 | 16.09 | Fair | CLR | 1 | 0 | 93% | -4 | 76.35 | 0.0 | ||||||
| 06 | 23:15 | W 7 | 16.09 | Fair | CLR | 0 | -1 | 93% | -2 | 76.38 | 0.0 | ||||||
| 06 | 22:55 | W 6 | 16.09 | Fair | CLR | 0 | -1 | 93% | 76.38 | 0.0 | |||||||
| 06 | 22:35 | W 9 | 16.09 | Fair | CLR | 0 | -2 | 87% | -3 | 76.38 | 0.0 | ||||||
| 06 | 22:15 | W 9 | 16.09 | Fair | CLR | 0 | -1 | 93% | -3 | 76.4 | 0.0 | ||||||
| 06 | 21:55 | W 6 | 16.09 | Fair | CLR | 1 | -1 | 87% | 76.4 | 0.0 | |||||||
| 06 | 21:35 | S 6 | 16.09 | Fair | CLR | 2 | -1 | 81% | 76.4 | 0.0 | |||||||
| 06 | 21:15 | S 7 | 16.09 | Fair | CLR | 2 | -1 | 81% | 0 | 76.4 | 0.0 | ||||||
| 06 | 20:55 | S 9 | 16.09 | Fair | CLR | 2 | -1 | 81% | -0 | 76.4 | 0.0 | ||||||
| 06 | 20:35 | S 11 | 16.09 | Fair | CLR | 2 | -1 | 81% | -1 | 76.38 | 0.0 | ||||||
| 06 | 20:15 | S 15 | 16.09 | Fair | CLR | 2 | -1 | 81% | -2 | 76.35 | 0.0 | ||||||
| 06 | 19:45 | Vrbl 6 | 16.09 | Fair | CLR | 3 | -1 | 75% | 76.35 | 0.0 | |||||||
| 06 | 18:45 | Vrbl 6 | 16.09 | Fair | CLR | 4 | -2 | 65% | 76.4 | 0.0 | |||||||
| 06 | 17:45 | Vrbl 6 | 16.09 | A Few Clouds | FEW060 | 3 | -2 | 70% | 76.43 | 0.0 | |||||||
| 06 | 16:45 | S 11 | 16.09 | Mostly Cloudy | SCT020 BKN040 | 3 | -2 | 70% | 0 | 76.45 | 0.0 | ||||||
| 06 | 15:45 | S 13 | 16.09 | Mostly Cloudy | BKN022 | 2 | -2 | 75% | -1 | 76.5 | 0.0 | ||||||
| 06 | 14:48 | Calm | 16.09 | Overcast | OVC022 | 2 | -3 | 70% | 76.53 | 0.0 | |||||||
| 06 | 13:45 | Calm | 16.09 | Mostly Cloudy | BKN013 BKN015 | 2 | -2 | 75% | 76.56 | 0.0 | |||||||
| 06 | 12:45 | Calm | 9.66 | Fog/Mist | OVC010 OVC015 | 1 | -1 | 87% | 76.61 | 0.0 | |||||||
| 06 | 11:50 | NE 9 | 2.41 | Light Snow Fog/Mist | OVC006 | 0 | -2 | 87% | -3 | 76.63 | 0.0 | ||||||
| 06 | 10:52 | NE 22 | 1.61 | Snow | OVC004 | 0 | -1 | 93% | -5 | 76.58 | 0.0 | ||||||
| 06 | 09:50 | N 22 | 1.61 | Light Snow Fog/Mist | OVC004 | 0 | -1 | 93% | -5 | 76.5 | 0.0 | ||||||
| 06 | 08:50 | N 17 | 1.61 | Snow | OVC004 | 0 | 0 | 100% | -4 | 76.48 | 0.0 | ||||||
| 06 | 07:50 | N 19 | 1.21 | Snow | OVC004 | 0 | 0 | 100% | -5 | 76.45 | 0.0 | ||||||
| 06 | 06:58 | Calm | 1.21 | Snow | OVC004 | 0 | 0 | 100% | 76.4 | 0.0 | |||||||
| 06 | 06:15 | N 6 | 2.01 | Light Snow | SCT004 OVC018 | 0 | 0 | 100% | 76.38 | 0.0 | |||||||
| 06 | 05:55 | N 6 | 6.44 | Light Snow | BKN006 BKN012 OVC020 | 0 | 0 | 100% | 76.35 | 0.0 | |||||||
| 06 | 05:35 | N 6 | 8.05 | Light Snow | OVC006 | 0 | 0 | 100% | 76.35 | 0.0 | |||||||
| 06 | 05:15 | N 6 | 8.05 | Light Snow | BKN003 OVC010 | 0 | 0 | 100% | 76.35 | 0.0 | |||||||
| 06 | 04:55 | N 6 | 11.27 | Unknown Precip | SCT003 OVC012 | 0 | 0 | 100% | 76.33 | 0.0 | |||||||
| 06 | 04:35 | Calm | 8.05 | Light Snow | OVC003 | 0 | 0 | 100% | 76.3 | 0.0 | |||||||
| 06 | 04:15 | N 6 | 4.83 | Light Snow | BKN003 OVC020 | 0 | 0 | 100% | 76.33 | 0.0 | |||||||
| 06 | 03:55 | N 7 | 8.05 | Light Snow | BKN003 OVC028 | 0 | 0 | 100% | -2 | 76.33 | 0.0 | ||||||
| 06 | 03:35 | N 9 | 4.83 | Light Snow | OVC003 | 0 | 0 | 100% | -3 | 76.3 | 0.0 | ||||||
| 06 | 03:15 | N 6 | 2.41 | Light Snow | OVC003 | 0 | 0 | 100% | 76.3 | 0.0 | |||||||
| 06 | 02:55 | N 6 | 1.61 | Snow | OVC003 | 0 | 0 | 100% | 76.3 | 0.0 | |||||||
| 06 | 02:35 | N 7 | 1.61 | Snow | OVC003 | 0 | 0 | 100% | -2 | 76.3 | 0.0 | ||||||
| 06 | 02:15 | N 9 | 2.41 | Light Snow | OVC003 | 0 | 0 | 100% | -3 | 76.3 | 0.0 | ||||||
| 06 | 01:55 | N 11 | 2.41 | Light Snow | OVC003 | 0 | 0 | 100% | -3 | 76.33 | 0.0 | ||||||
| 06 | 01:35 | N 7 | 1.61 | Snow | OVC003 | 0 | 0 | 100% | -2 | 76.3 | 0.0 | ||||||
| 06 | 01:15 | N 7 | 1.21 | Snow | OVC003 | 0 | 0 | 100% | -2 | 76.3 | 0.0 | ||||||
| 06 | 00:55 | N 7 | 1.61 | Snow | OVC003 | 0 | 0 | 100% | -2 | 76.3 | 0.0 | ||||||
| 06 | 00:35 | N 9 | 2.01 | Light Snow | OVC003 | 0 | 0 | 100% | -3 | 76.3 | 0.0 | ||||||
| 06 | 00:15 | N 9 | 2.01 | Light Snow | OVC003 | 0 | 0 | 100% | -3 | 76.28 | 0.0 | ||||||
| 05 | 23:55 | N 7 | 2.41 | Light Snow | OVC003 | 0 | 0 | 100% | -2 | 76.28 | 0.0 | ||||||
| 05 | 23:35 | N 6 | 3.22 | Light Snow | OVC003 | 0 | 0 | 100% | 76.28 | 0.0 | |||||||
| 05 | 23:15 | N 7 | 2.01 | Light Snow | BKN003 OVC007 | 0 | 0 | 100% | -2 | 76.28 | 0.0 | ||||||
| 05 | 22:35 | N 7 | 1.61 | Snow | OVC003 | 0 | 0 | 100% | -2 | 76.25 | 0.0 | ||||||
| 05 | 22:15 | N 9 | 2.01 | Snow | OVC003 | 0 | 0 | 100% | -3 | 76.25 | 0.0 | ||||||
| 05 | 21:55 | N 11 | 2.01 | Snow | OVC003 | 0 | 0 | 100% | -3 | 76.23 | 0.0 | ||||||
| 05 | 21:35 | N 13 | 2.41 | Light Snow | OVC003 | 0 | 0 | 100% | -4 | 76.23 | 0.0 | ||||||
| 05 | 21:15 | N 11 | 2.01 | Snow | OVC003 | 0 | 0 | 100% | -3 | 76.2 | 0.0 | ||||||
| 05 | 20:55 | N 11 | 2.41 | Light Snow | BKN003 BKN007 OVC018 | 0 | 0 | 100% | -3 | 76.17 | 0.0 | ||||||
| 05 | 20:35 | N 13 | 2.01 | Snow | BKN003 OVC007 | 0 | 0 | 100% | -4 | 76.17 | 0.0 | ||||||
| 05 | 20:15 | N 13 | 2.41 | Light Snow | OVC003 | 0 | 0 | 100% | -4 | 76.12 | 0.0 | ||||||
| 05 | 19:45 | N 19 | 1.61 | Light Snow | OVC005 | 1 | 0 | 93% | -3 | 76.12 | 0.0 | ||||||
| 05 | 18:48 | N 24 | 1.21 | Light Snow Fog/Mist | OVC005 | 1 | 1 | 100% | -4 | 76.07 | 0.0 | ||||||
| 05 | 17:52 | N 24 | 0.80 | Light Snow Fog | OVC003 | 1 | 0 | 93% | -4 | 76.07 | 0.0 | ||||||
| 05 | 16:45 | N 28 | 0.80 | Snow Fog | OVC003 | 1 | 1 | 100% | -5 | 76.02 | 0.0 | ||||||
| 05 | 15:45 | N 26 | 1.21 | Light Snow Fog/Mist | OVC006 | 2 | 1 | 93% | -3 | 75.97 | 0.0 | ||||||
| 05 | 14:45 | N 13 | 6.44 | Light Rain Fog/Mist | OVC006 | 4 | 3 | 93% | 1 | 76.02 | 0.0 | ||||||
| 05 | 13:48 | NE 17 | 6.44 | Light Rain | OVC007 | 3 | 3 | 100% | -1 | 76.05 | 0.0 | ||||||
| 05 | 12:48 | NE 15 | 6.44 | Light Rain | OVC007 | 4 | 3 | 93% | 1 | 76.07 | 0.0 | ||||||
| 05 | 11:47 | N 11 | 4.83 | Light Rain | OVC004 | 3 | 2 | 93% | 0 | 76.12 | 0.0 | ||||||
| 05 | 10:47 | N 9 | 8.05 | Fog/Mist | OVC004 | 2 | 2 | 100% | -0 | 76.15 | 0.0 | ||||||
| Date | Time (mdt) | Wind (kph) | Vis. (km) | Weather | Sky Cond. | Air | Dwpt | Max. | Min. | Relative Humidity | Wind Chill (°C) | Heat Index (°C) | altimeter (cm) | sea level (mb) | 1 hr | 3 hr | 6 hr |
| 6 hour | |||||||||||||||||
| Temperature (ºC) | Pressure | Precipitation (cm) | |||||||||||||||